createdAt,value
2023-04-16T00:00:48.543Z,99824.34
2023-04-16T00:03:31.822Z,99824.39
2023-04-16T00:06:00.727Z,99822.91
2023-04-16T00:08:28.639Z,99824.54
2023-04-16T00:10:56.627Z,99825.98
2023-04-16T00:13:26.251Z,99829.02
2023-04-16T00:15:54.402Z,99830.02
2023-04-16T00:18:22.431Z,99826.63
2023-04-16T00:20:50.904Z,99823.20
2023-04-16T00:23:19.000Z,99819.42
2023-04-16T00:25:47.049Z,99818.75
2023-04-16T00:28:14.958Z,99820.25
2023-04-16T00:30:42.899Z,99822.89
2023-04-16T00:33:10.967Z,99826.74
2023-04-16T00:35:38.945Z,99827.73
2023-04-16T00:38:06.942Z,99825.31
2023-04-16T00:40:34.924Z,99825.25
2023-04-16T00:43:02.896Z,99826.55
2023-04-16T00:45:30.934Z,99825.46
2023-04-16T00:48:00.838Z,99820.73
2023-04-16T00:50:29.637Z,99824.34
2023-04-16T00:52:58.345Z,99820.54
2023-04-16T00:55:27.641Z,99822.36
2023-04-16T00:57:55.687Z,99820.59
2023-04-16T01:00:23.878Z,99821.09
2023-04-16T01:02:53.737Z,99822.60
2023-04-16T01:05:22.279Z,99822.96
2023-04-16T01:07:51.347Z,99824.85
2023-04-16T01:10:19.369Z,99827.60
2023-04-16T01:12:47.323Z,99826.84
2023-04-16T01:15:15.364Z,99822.10
2023-04-16T01:17:46.284Z,99819.66
2023-04-16T01:20:15.319Z,99822.11
2023-04-16T01:22:43.503Z,99823.13
2023-04-16T01:25:15.836Z,99825.23
2023-04-16T01:27:43.878Z,99825.09
2023-04-16T01:30:12.055Z,99825.40
2023-04-16T01:32:51.696Z,99821.91
2023-04-16T01:35:19.786Z,99822.73
2023-04-16T01:37:50.314Z,99820.93
2023-04-16T01:40:18.740Z,99817.16
2023-04-16T01:42:46.807Z,99813.35
2023-04-16T01:45:14.835Z,99810.98
2023-04-16T01:47:42.952Z,99810.08
2023-04-16T01:50:11.685Z,99809.48
2023-04-16T01:52:39.874Z,99812.55
2023-04-16T01:55:08.231Z,99813.20
2023-04-16T01:57:36.291Z,99808.91
2023-04-16T02:00:06.407Z,99807.15
2023-04-16T02:02:35.570Z,99805.33
2023-04-16T02:05:04.026Z,99802.39
2023-04-16T02:07:32.118Z,99803.56
2023-04-16T02:10:00.057Z,99801.42
2023-04-16T02:12:29.920Z,99804.44
2023-04-16T02:14:58.262Z,99806.42
2023-04-16T02:17:28.141Z,99803.39
2023-04-16T02:20:09.551Z,99807.41
2023-04-16T02:22:40.995Z,99807.55
2023-04-16T02:25:09.249Z,99809.79
2023-04-16T02:27:37.547Z,99804.63
2023-04-16T02:30:18.112Z,99806.70
2023-04-16T02:32:46.198Z,99805.13
2023-04-16T02:35:14.829Z,99804.64
2023-04-16T02:37:43.002Z,99803.07
2023-04-16T02:40:11.710Z,99800.41
2023-04-16T02:42:39.757Z,99802.08
2023-04-16T02:45:09.269Z,99801.73
2023-04-16T02:47:37.449Z,99800.50
2023-04-16T02:50:06.400Z,99801.80
2023-04-16T02:52:34.480Z,99801.77
2023-04-16T02:55:02.792Z,99797.91
2023-04-16T02:57:30.848Z,99797.40
2023-04-16T02:59:59.382Z,99798.52
2023-04-16T03:02:27.581Z,99800.80
2023-04-16T03:04:56.047Z,99800.42
2023-04-16T03:07:24.524Z,99799.13
2023-04-16T03:09:52.399Z,99795.58
2023-04-16T03:12:20.457Z,99798.45
2023-04-16T03:14:51.574Z,99799.29
2023-04-16T03:17:19.473Z,99801.61
2023-04-16T03:19:47.661Z,99803.74
2023-04-16T03:22:16.051Z,99805.14
2023-04-16T03:24:44.016Z,99809.42
2023-04-16T03:27:12.103Z,99806.70
2023-04-16T03:29:40.171Z,99810.19
2023-04-16T03:32:08.149Z,99810.30
2023-04-16T03:34:37.112Z,99811.64
2023-04-16T03:37:06.332Z,99813.54
2023-04-16T03:39:34.860Z,99813.27
2023-04-16T03:42:03.802Z,99819.48
2023-04-16T03:44:31.693Z,99819.97
2023-04-16T03:46:59.618Z,99820.50
2023-04-16T03:49:27.863Z,99820.02
2023-04-16T03:51:55.930Z,99818.05
2023-04-16T03:54:23.999Z,99816.09
2023-04-16T03:56:57.538Z,99815.42
2023-04-16T03:59:25.835Z,99823.30
2023-04-16T04:01:54.086Z,99823.63
2023-04-16T04:04:22.369Z,99827.23
2023-04-16T04:06:50.495Z,99829.39
2023-04-16T04:09:18.609Z,99831.35
2023-04-16T04:11:47.695Z,99834.77
2023-04-16T04:14:15.830Z,99837.61
2023-04-16T04:16:43.925Z,99838.54
2023-04-16T04:19:12.245Z,99842.09
2023-04-16T04:21:40.709Z,99839.02
2023-04-16T04:24:10.493Z,99841.70
2023-04-16T04:26:38.517Z,99841.48
2023-04-16T04:29:06.658Z,99840.77
2023-04-16T04:31:36.013Z,99842.57
2023-04-16T04:34:04.297Z,99840.80
2023-04-16T04:36:32.455Z,99843.66
2023-04-16T04:39:02.045Z,99843.23
2023-04-16T04:41:30.421Z,99846.96
2023-04-16T04:43:58.378Z,99849.75
2023-04-16T04:46:26.609Z,99855.02
2023-04-16T04:48:54.664Z,99858.80
2023-04-16T04:51:22.640Z,99860.90
2023-04-16T04:53:50.560Z,99861.71
2023-04-16T04:56:18.573Z,99860.60
2023-04-16T04:58:46.636Z,99853.08
2023-04-16T05:01:14.636Z,99850.96
2023-04-16T05:03:42.757Z,99853.66
2023-04-16T05:06:10.829Z,99853.06
2023-04-16T05:08:38.818Z,99857.35
2023-04-16T05:11:06.705Z,99857.31
2023-04-16T05:13:34.658Z,99854.96
2023-04-16T05:16:02.624Z,99855.66
2023-04-16T05:18:31.221Z,99856.80
2023-04-16T05:20:59.286Z,99858.11
2023-04-16T05:23:27.274Z,99855.67
2023-04-16T05:25:55.419Z,99858.13
2023-04-16T05:28:23.482Z,99860.52
2023-04-16T05:30:51.754Z,99864.29
2023-04-16T05:33:19.801Z,99864.04
2023-04-16T05:35:47.819Z,99864.83
2023-04-16T05:38:15.884Z,99868.77
2023-04-16T05:40:43.762Z,99865.94
2023-04-16T05:43:11.736Z,99866.52
2023-04-16T05:45:41.394Z,99870.36
2023-04-16T05:48:10.170Z,99875.83
2023-04-16T05:50:38.742Z,99879.56
2023-04-16T05:53:08.572Z,99882.07
2023-04-16T05:55:39.471Z,99880.20
2023-04-16T05:58:07.490Z,99878.95
2023-04-16T06:00:36.069Z,99883.05
2023-04-16T06:03:04.624Z,99877.87
2023-04-16T06:05:32.831Z,99879.04
2023-04-16T06:08:01.170Z,99877.42
2023-04-16T06:10:29.476Z,99874.48
2023-04-16T06:12:57.404Z,99872.70
2023-04-16T06:15:25.327Z,99870.05
2023-04-16T06:17:54.924Z,99872.41
2023-04-16T06:20:23.000Z,99872.21
2023-04-16T06:22:51.096Z,99869.05
2023-04-16T06:25:19.058Z,99864.35
2023-04-16T06:27:47.080Z,99861.66
2023-04-16T06:30:16.407Z,99863.38
2023-04-16T06:32:44.852Z,99860.98
2023-04-16T06:35:12.927Z,99857.73
2023-04-16T06:37:41.533Z,99859.58
2023-04-16T06:40:10.174Z,99858.40
2023-04-16T06:42:38.371Z,99860.95
2023-04-16T06:45:07.594Z,99861.33
2023-04-16T06:47:35.818Z,99863.68
2023-04-16T06:50:04.037Z,99863.47
2023-04-16T06:52:32.145Z,99865.48
2023-04-16T06:55:00.260Z,99861.21
2023-04-16T06:57:28.183Z,99861.37
2023-04-16T06:59:56.364Z,99861.09
2023-04-16T07:02:24.556Z,99858.20
2023-04-16T07:04:52.726Z,99859.64
2023-04-16T07:07:20.788Z,99860.66
2023-04-16T07:09:48.842Z,99864.13
2023-04-16T07:12:16.960Z,99862.33
2023-04-16T07:14:44.893Z,99860.89
2023-04-16T07:17:12.812Z,99860.38
2023-04-16T07:19:41.073Z,99860.33
2023-04-16T07:22:08.949Z,99863.35
2023-04-16T07:24:36.898Z,99861.77
2023-04-16T07:27:04.866Z,99861.41
2023-04-16T07:29:33.489Z,99862.56
2023-04-16T07:32:01.712Z,99865.70
2023-04-16T07:34:29.803Z,99864.88
2023-04-16T07:36:57.565Z,99865.77
2023-04-16T07:39:25.451Z,99862.83
2023-04-16T07:41:53.289Z,99865.61
2023-04-16T07:44:21.313Z,99861.53
2023-04-16T07:46:49.172Z,99861.27
2023-04-16T07:49:17.361Z,99862.79
2023-04-16T07:51:45.480Z,99862.00
2023-04-16T07:54:13.417Z,99859.09
2023-04-16T07:56:41.397Z,99857.90
2023-04-16T07:59:22.112Z,99854.88
2023-04-16T08:01:53.968Z,99853.95
2023-04-16T08:04:25.661Z,99849.70
2023-04-16T08:06:54.491Z,99844.96
2023-04-16T08:09:24.343Z,99842.83
2023-04-16T08:11:52.299Z,99844.61
2023-04-16T08:14:20.389Z,99845.11
2023-04-16T08:16:50.046Z,99842.38
2023-04-16T08:19:18.202Z,99839.67
2023-04-16T08:21:47.350Z,99838.27
2023-04-16T08:24:15.693Z,99836.88
2023-04-16T08:26:43.790Z,99834.80
2023-04-16T08:29:11.962Z,99836.88
2023-04-16T08:31:41.421Z,99834.28
2023-04-16T08:34:11.564Z,99831.96
2023-04-16T08:36:41.037Z,99834.60
2023-04-16T08:39:09.611Z,99835.58
2023-04-16T08:41:42.420Z,99836.38
2023-04-16T08:44:19.885Z,99839.14
2023-04-16T08:46:48.747Z,99842.11
2023-04-16T08:49:18.338Z,99841.67
2023-04-16T08:51:59.151Z,99843.67
2023-04-16T08:54:32.675Z,99844.09
2023-04-16T08:57:05.859Z,99842.20
2023-04-16T08:59:34.731Z,99842.10
2023-04-16T09:02:03.070Z,99843.29
2023-04-16T09:04:32.701Z,99841.20
2023-04-16T09:07:05.395Z,99840.21
2023-04-16T09:09:34.699Z,99840.52
2023-04-16T09:12:03.374Z,99841.80
2023-04-16T09:14:31.306Z,99842.95
2023-04-16T09:17:02.520Z,99844.34
2023-04-16T09:19:30.743Z,99844.34
2023-04-16T09:21:58.825Z,99844.79
2023-04-16T09:24:27.133Z,99845.09
2023-04-16T09:26:55.212Z,99843.21
2023-04-16T09:29:43.475Z,99842.80
2023-04-16T09:32:12.367Z,99843.15
2023-04-16T09:35:00.676Z,99840.84
2023-04-16T09:37:30.518Z,99843.52
2023-04-16T09:40:00.852Z,99838.64
2023-04-16T09:42:31.777Z,99842.09
2023-04-16T09:45:03.327Z,99839.34
2023-04-16T09:47:42.111Z,99838.03
2023-04-16T09:50:18.749Z,99836.58
2023-04-16T09:52:53.946Z,99836.60
2023-04-16T09:55:27.798Z,99833.08
2023-04-16T09:58:01.278Z,99828.45
2023-04-16T10:00:31.513Z,99825.50
2023-04-16T10:03:07.347Z,99827.02
2023-04-16T10:05:37.066Z,99824.43
2023-04-16T10:08:12.255Z,99821.28
2023-04-16T10:10:43.617Z,99815.53
2023-04-16T10:13:12.987Z,99808.50
2023-04-16T10:15:42.093Z,99802.64
2023-04-16T10:18:11.563Z,99801.86
2023-04-16T10:20:39.759Z,99798.85
2023-04-16T10:23:07.967Z,99798.90
2023-04-16T10:25:36.610Z,99796.27
2023-04-16T10:28:05.566Z,99794.45
2023-04-16T10:30:33.963Z,99793.80
2023-04-16T10:33:07.868Z,99791.51
2023-04-16T10:35:40.555Z,99789.04
2023-04-16T10:38:28.550Z,99784.96
2023-04-16T10:41:02.223Z,99784.00
2023-04-16T10:43:31.870Z,99784.46
2023-04-16T10:46:32.985Z,99781.24
2023-04-16T10:49:03.253Z,99780.83
2023-04-16T10:51:34.632Z,99779.99
2023-04-16T10:54:28.510Z,99778.43
2023-04-16T10:57:04.446Z,99771.98
2023-04-16T10:59:35.684Z,99769.63
2023-04-16T11:02:16.607Z,99765.76
2023-04-16T11:04:46.468Z,99764.83
2023-04-16T11:07:32.192Z,99766.37
2023-04-16T11:10:04.406Z,99763.83
2023-04-16T11:12:37.920Z,99761.45
2023-04-16T11:15:10.750Z,99755.52
2023-04-16T11:17:43.064Z,99756.54
2023-04-16T11:20:19.018Z,99758.09
2023-04-16T11:22:53.735Z,99756.09
2023-04-16T11:25:27.337Z,99750.80
2023-04-16T11:27:57.069Z,99750.13
2023-04-16T11:30:34.137Z,99745.95
2023-04-16T11:33:03.838Z,99743.67
2023-04-16T11:35:32.493Z,99744.27
2023-04-16T11:38:00.690Z,99743.85
2023-04-16T11:40:31.854Z,99742.70
2023-04-16T11:43:12.632Z,99737.88
2023-04-16T11:45:56.256Z,99733.79
2023-04-16T11:48:24.528Z,99726.66
2023-04-16T11:50:59.293Z,99728.66
2023-04-16T11:53:27.344Z,99727.29
2023-04-16T11:55:55.419Z,99723.30
2023-04-16T11:58:23.659Z,99717.35
2023-04-16T12:00:56.969Z,99713.05
2023-04-16T12:03:46.186Z,99709.30
2023-04-16T12:06:15.526Z,99707.99
2023-04-16T12:08:43.498Z,99704.08
2023-04-16T12:11:11.483Z,99695.30
2023-04-16T12:13:40.314Z,99697.61
2023-04-16T12:16:21.209Z,99700.73
2023-04-16T12:19:01.720Z,99696.45
2023-04-16T12:22:00.863Z,99687.77
2023-04-16T12:24:32.353Z,99691.34
2023-04-16T12:27:03.192Z,99689.15
2023-04-16T12:29:31.996Z,99689.77
2023-04-16T12:32:00.080Z,99686.98
2023-04-16T12:34:48.525Z,99684.44
2023-04-16T12:37:16.679Z,99683.58
2023-04-16T12:39:45.477Z,99681.20
2023-04-16T12:42:14.937Z,99673.89
2023-04-16T12:44:42.939Z,99675.39
2023-04-16T12:47:11.424Z,99672.94
2023-04-16T12:49:39.463Z,99676.66
2023-04-16T12:52:07.717Z,99670.57
2023-04-16T12:54:35.805Z,99674.00
2023-04-16T12:57:03.921Z,99669.48
2023-04-16T12:59:31.997Z,99666.66
2023-04-16T13:02:01.645Z,99665.90
2023-04-16T13:04:30.095Z,99664.59
2023-04-16T13:06:58.214Z,99665.91
2023-04-16T13:09:27.104Z,99664.39
2023-04-16T13:11:55.114Z,99665.95
2023-04-16T13:14:23.110Z,99664.66
2023-04-16T13:16:50.971Z,99663.33
2023-04-16T13:19:19.362Z,99660.59
2023-04-16T13:21:47.319Z,99655.17
2023-04-16T13:24:15.568Z,99653.83
2023-04-16T13:26:43.603Z,99649.17
2023-04-16T13:29:11.908Z,99650.64
2023-04-16T13:31:40.367Z,99650.00
2023-04-16T13:34:08.269Z,99652.09
2023-04-16T13:36:36.154Z,99651.49
2023-04-16T13:39:05.427Z,99656.13
2023-04-16T13:41:33.395Z,99654.23
2023-04-16T13:44:01.311Z,99655.65
2023-04-16T13:46:29.596Z,99650.56
2023-04-16T13:48:57.818Z,99650.52
2023-04-16T13:51:27.214Z,99652.08
2023-04-16T13:53:57.982Z,99651.98
2023-04-16T13:56:26.061Z,99647.32
2023-04-16T13:58:54.068Z,99648.73
2023-04-16T14:01:22.084Z,99650.67
2023-04-16T14:03:50.196Z,99648.42
2023-04-16T14:06:18.407Z,99646.50
2023-04-16T14:08:46.423Z,99648.98
2023-04-16T14:11:14.409Z,99652.58
2023-04-16T14:13:42.352Z,99653.65
2023-04-16T14:16:10.793Z,99652.13
2023-04-16T14:18:42.485Z,99655.56
2023-04-16T14:21:10.752Z,99655.31
2023-04-16T14:23:38.715Z,99656.39
2023-04-16T14:26:06.694Z,99654.22
2023-04-16T14:28:35.865Z,99654.80
2023-04-16T14:31:03.962Z,99651.20
2023-04-16T14:33:32.382Z,99652.53
2023-04-16T14:36:02.720Z,99648.20
2023-04-16T14:38:32.097Z,99646.46
2023-04-16T14:41:00.649Z,99642.79
2023-04-16T14:43:28.916Z,99648.83
2023-04-16T14:45:59.061Z,99646.90
2023-04-16T14:48:27.038Z,99650.36
2023-04-16T14:50:55.037Z,99648.95
2023-04-16T14:53:24.527Z,99647.09
2023-04-16T14:55:53.452Z,99642.14
2023-04-16T14:58:22.012Z,99639.23
2023-04-16T15:00:49.966Z,99638.70
2023-04-16T15:03:18.188Z,99640.01
2023-04-16T15:05:50.875Z,99640.55
2023-04-16T15:08:18.772Z,99636.85
2023-04-16T15:10:46.736Z,99636.94
2023-04-16T15:13:14.779Z,99638.98
2023-04-16T15:15:43.977Z,99639.07
2023-04-16T15:18:12.151Z,99641.02
2023-04-16T15:20:40.159Z,99642.27
2023-04-16T15:23:08.241Z,99641.10
2023-04-16T15:25:36.245Z,99644.60
2023-04-16T15:28:04.527Z,99643.66
2023-04-16T15:30:32.486Z,99646.52
2023-04-16T15:33:00.784Z,99644.42
2023-04-16T15:35:28.850Z,99643.40
2023-04-16T15:37:56.919Z,99645.64
2023-04-16T15:40:25.240Z,99644.41
2023-04-16T15:42:56.023Z,99643.12
2023-04-16T15:45:24.127Z,99647.64
2023-04-16T15:47:52.296Z,99651.84
2023-04-16T15:50:20.987Z,99648.19
2023-04-16T15:52:49.214Z,99649.02
2023-04-16T15:55:18.270Z,99651.48
2023-04-16T15:57:46.526Z,99648.73
2023-04-16T16:00:17.214Z,99648.77
2023-04-16T16:02:47.161Z,99649.39
2023-04-16T16:05:17.004Z,99649.94
2023-04-16T16:07:45.597Z,99651.61
2023-04-16T16:10:13.708Z,99651.81
2023-04-16T16:12:41.926Z,99652.95
2023-04-16T16:15:11.314Z,99655.20
2023-04-16T16:17:40.696Z,99655.42
2023-04-16T16:20:10.849Z,99651.98
2023-04-16T16:22:40.257Z,99651.52
2023-04-16T16:25:10.247Z,99651.55
2023-04-16T16:27:38.254Z,99654.50
2023-04-16T16:30:07.743Z,99656.64
2023-04-16T16:32:36.041Z,99654.10
2023-04-16T16:35:04.441Z,99656.54
2023-04-16T16:37:32.481Z,99660.16
2023-04-16T16:40:00.770Z,99660.23
2023-04-16T16:42:28.969Z,99662.84
2023-04-16T16:44:57.629Z,99665.05
2023-04-16T16:47:26.257Z,99670.48
2023-04-16T16:49:54.837Z,99677.03
2023-04-16T16:52:24.314Z,99688.60
2023-04-16T16:54:56.913Z,99692.56
2023-04-16T16:57:25.023Z,99693.46
2023-04-16T16:59:54.484Z,99700.41
2023-04-16T17:02:23.246Z,99698.15
2023-04-16T17:04:52.802Z,99702.88
2023-04-16T17:07:20.977Z,99704.38
2023-04-16T17:09:48.889Z,99709.98
2023-04-16T17:12:16.802Z,99708.34
2023-04-16T17:14:44.796Z,99700.23
2023-04-16T17:17:12.853Z,99702.44
2023-04-16T17:19:40.821Z,99709.31
2023-04-16T17:22:11.856Z,99711.05
2023-04-16T17:24:39.827Z,99708.75
2023-04-16T17:27:07.694Z,99715.42
2023-04-16T17:29:35.968Z,99716.80
2023-04-16T17:32:04.286Z,99714.44
2023-04-16T17:34:32.196Z,99717.63
2023-04-16T17:37:00.432Z,99712.85
2023-04-16T17:39:28.383Z,99717.83
2023-04-16T17:41:58.729Z,99723.89
2023-04-16T17:44:28.034Z,99724.81
2023-04-16T17:46:56.102Z,99721.73
2023-04-16T17:49:24.133Z,99722.80
2023-04-16T17:51:54.069Z,99722.44
2023-04-16T17:54:21.997Z,99725.54
2023-04-16T17:56:49.912Z,99729.03
2023-04-16T17:59:17.843Z,99728.79
2023-04-16T18:01:46.020Z,99724.84
2023-04-16T18:04:14.328Z,99727.14
2023-04-16T18:06:42.544Z,99724.50
2023-04-16T18:09:10.666Z,99724.59
2023-04-16T18:11:38.622Z,99726.48
2023-04-16T18:14:06.540Z,99731.29
2023-04-16T18:16:34.578Z,99735.17
2023-04-16T18:19:02.517Z,99733.25
2023-04-16T18:21:31.645Z,99739.02
2023-04-16T18:24:01.066Z,99736.58
2023-04-16T18:26:30.072Z,99738.30
2023-04-16T18:29:06.815Z,99735.70
2023-04-16T18:31:34.733Z,99736.73
2023-04-16T18:34:03.046Z,99736.67
2023-04-16T18:36:31.608Z,99738.55
2023-04-16T18:39:02.123Z,99735.40
2023-04-16T18:41:31.394Z,99737.57
2023-04-16T18:43:59.442Z,99736.38
2023-04-16T18:46:27.635Z,99734.68
2023-04-16T18:48:56.035Z,99734.64
2023-04-16T18:51:25.161Z,99735.91
2023-04-16T18:53:53.212Z,99737.54
2023-04-16T18:56:21.792Z,99737.23
2023-04-16T18:58:49.696Z,99740.64
2023-04-16T19:01:18.409Z,99738.45
2023-04-16T19:03:46.519Z,99736.81
2023-04-16T19:06:14.748Z,99736.91
2023-04-16T19:08:42.613Z,99732.23
2023-04-16T19:11:10.718Z,99729.88
2023-04-16T19:13:39.441Z,99723.84
2023-04-16T19:16:11.642Z,99722.11
2023-04-16T19:18:39.943Z,99717.25
2023-04-16T19:21:10.133Z,99714.29
2023-04-16T19:23:38.167Z,99709.36
2023-04-16T19:26:06.380Z,99710.41
2023-04-16T19:28:34.351Z,99708.86
2023-04-16T19:31:02.257Z,99706.13
2023-04-16T19:33:31.439Z,99705.50
2023-04-16T19:36:00.518Z,99702.39
2023-04-16T19:38:29.177Z,99698.48
2023-04-16T19:40:57.195Z,99694.14
2023-04-16T19:43:25.444Z,99688.74
2023-04-16T19:45:54.315Z,99692.12
2023-04-16T19:48:22.468Z,99692.79
2023-04-16T19:50:52.807Z,99691.85
2023-04-16T19:53:21.631Z,99690.65
2023-04-16T19:55:50.065Z,99690.58
2023-04-16T19:58:21.324Z,99692.88
2023-04-16T20:00:49.396Z,99699.02
2023-04-16T20:03:18.188Z,99699.40
2023-04-16T20:05:49.656Z,99700.45
2023-04-16T20:08:17.730Z,99699.70
2023-04-16T20:10:46.015Z,99701.03
2023-04-16T20:13:16.097Z,99701.48
2023-04-16T20:15:54.091Z,99699.89
2023-04-16T20:18:25.982Z,99700.43
2023-04-16T20:20:54.888Z,99700.57
2023-04-16T20:23:22.822Z,99696.63
2023-04-16T20:25:52.336Z,99698.59
2023-04-16T20:28:21.622Z,99698.96
2023-04-16T20:30:52.113Z,99694.24
2023-04-16T20:33:20.417Z,99693.25
2023-04-16T20:35:49.238Z,99697.25
2023-04-16T20:38:18.407Z,99697.15
2023-04-16T20:40:47.275Z,99695.88
2023-04-16T20:43:18.759Z,99697.86
2023-04-16T20:45:46.983Z,99696.92
2023-04-16T20:48:15.049Z,99695.22
2023-04-16T20:50:43.159Z,99697.62
2023-04-16T20:53:11.173Z,99697.67
2023-04-16T20:55:39.206Z,99697.11
2023-04-16T20:58:07.204Z,99694.71
2023-04-16T21:00:35.320Z,99693.76
2023-04-16T21:03:06.618Z,99689.86
2023-04-16T21:05:34.722Z,99684.41
2023-04-16T21:08:03.168Z,99685.28
2023-04-16T21:10:32.582Z,99680.14
2023-04-16T21:13:00.672Z,99679.75
2023-04-16T21:15:28.665Z,99682.29
2023-04-16T21:18:00.181Z,99681.01
2023-04-16T21:20:30.641Z,99680.93
2023-04-16T21:22:59.240Z,99680.16
2023-04-16T21:25:27.354Z,99678.75
2023-04-16T21:27:55.653Z,99678.33
2023-04-16T21:30:23.716Z,99676.14
2023-04-16T21:32:51.785Z,99677.86
2023-04-16T21:35:19.900Z,99676.47
2023-04-16T21:37:47.993Z,99677.26
2023-04-16T21:40:16.241Z,99674.04
2023-04-16T21:42:44.624Z,99672.11
2023-04-16T21:45:14.628Z,99668.59
2023-04-16T21:47:42.776Z,99667.32
2023-04-16T21:50:11.963Z,99666.84
2023-04-16T21:52:40.585Z,99666.29
2023-04-16T21:55:09.953Z,99666.59
2023-04-16T21:57:40.761Z,99667.73
2023-04-16T22:00:13.761Z,99667.36
2023-04-16T22:02:43.252Z,99667.96
2023-04-16T22:05:11.762Z,99669.16
2023-04-16T22:07:39.970Z,99668.15
2023-04-16T22:10:09.149Z,99666.98
2023-04-16T22:12:40.102Z,99665.80
2023-04-16T22:15:09.217Z,99665.34
2023-04-16T22:17:37.326Z,99666.62
2023-04-16T22:20:09.419Z,99665.59
2023-04-16T22:22:37.690Z,99664.17
2023-04-16T22:25:06.366Z,99662.73
2023-04-16T22:27:34.572Z,99661.61
2023-04-16T22:30:03.980Z,99663.53
2023-04-16T22:32:33.218Z,99662.92
2023-04-16T22:35:02.144Z,99664.98
2023-04-16T22:37:30.130Z,99664.03
2023-04-16T22:39:58.235Z,99658.75
2023-04-16T22:42:26.362Z,99657.42
2023-04-16T22:44:54.352Z,99653.27
2023-04-16T22:47:22.698Z,99652.27
2023-04-16T22:49:50.945Z,99651.52
2023-04-16T22:52:18.869Z,99650.55
2023-04-16T22:54:46.875Z,99645.09
2023-04-16T22:57:14.945Z,99646.77
2023-04-16T22:59:42.893Z,99647.66
2023-04-16T23:02:10.860Z,99646.70
2023-04-16T23:04:38.786Z,99650.48
2023-04-16T23:07:06.930Z,99653.38
2023-04-16T23:09:34.969Z,99654.52
2023-04-16T23:12:03.046Z,99651.32
2023-04-16T23:14:31.622Z,99654.33
2023-04-16T23:16:59.876Z,99654.61
2023-04-16T23:19:27.974Z,99656.20
2023-04-16T23:21:56.149Z,99658.37
2023-04-16T23:24:24.327Z,99654.22
2023-04-16T23:26:52.814Z,99651.73
2023-04-16T23:29:21.006Z,99652.09
2023-04-16T23:31:49.048Z,99651.77
2023-04-16T23:34:17.006Z,99650.54
2023-04-16T23:36:45.137Z,99645.66
2023-04-16T23:39:13.276Z,99645.49
2023-04-16T23:41:41.530Z,99641.34
2023-04-16T23:44:09.616Z,99643.64
2023-04-16T23:46:39.006Z,99642.55
2023-04-16T23:49:07.067Z,99640.66
2023-04-16T23:51:35.063Z,99639.58
2023-04-16T23:54:03.116Z,99637.90
2023-04-16T23:56:31.447Z,99637.48
2023-04-16T23:58:59.467Z,99635.20
